1893 NOT_NAMED (1893080S10061)


IBTrACS version v04r00. Visit IBTrACS website for data access.
Please direct all questions to the IBTrACS Q and A forum

Storm track - Intensity - Wind Radii - Intensity Data - Source Data - All data

Summary Information

Storm ID 1893080S10061
Start Mar 20 18Z
End Mar 27 06Z
ATCF IDs
Track status Best track data.

Storm track plot

Map of storm track

Intensity plots

No Intensity information for this storm


Radial wind information

No radial wind information for this storm


Position and Intensity Table

BASIN ISO_TIME_________ NATURE LAT LON
degrees north degrees east
SI 1893-03-20 18:00:00 NR -9.80 60.60
SI 21:00:00 NR -9.88 60.62
SI 1893-03-21 00:00:00 NR -9.97 60.64
SI 03:00:00 NR -10.11 60.67
SI 06:00:00 NR -10.20 60.70
SI 09:00:00 NR -10.32 60.73
SI 12:00:00 NR -10.45 60.75
SI 15:00:00 NR -10.58 60.78
SI 18:00:00 NR -10.80 60.82
SI 21:00:00 NR -11.00 60.86
SI 1893-03-22 00:00:00 NR -11.23 60.90
SI 03:00:00 NR -11.47 60.95
SI 06:00:00 NR -11.75 61.00
SI 09:00:00 NR -12.06 61.04
SI 12:00:00 NR -12.41 61.09
SI 15:00:00 NR -12.78 61.15
SI 18:00:00 NR -13.17 61.22
SI 21:00:00 NR -13.31 61.26
SI 1893-03-23 00:00:00 NR -13.37 61.29
SI 03:00:00 NR -13.31 61.28
SI 06:00:00 NR -13.00 61.20
SI 09:00:00 NR -13.39 61.27
SI 12:00:00 NR -13.80 61.35
SI 15:00:00 NR -14.24 61.44
SI 18:00:00 NR -14.69 61.54
SI 21:00:00 NR -15.15 61.65
SI 1893-03-24 00:00:00 NR -15.63 61.79
SI 03:00:00 NR -16.11 61.93
SI 06:00:00 NR -16.60 62.10
SI 09:00:00 NR -17.06 62.25
SI 12:00:00 NR -17.53 62.42
SI 15:00:00 NR -18.00 62.61
SI 18:00:00 NR -18.49 62.83
SI 21:00:00 NR -18.99 63.07
SI 1893-03-25 00:00:00 NR -19.50 63.34
SI 03:00:00 NR -20.04 63.65
SI 06:00:00 NR -20.60 64.00
SI 09:00:00 NR -21.27 64.46
SI 12:00:00 NR -21.98 64.97
SI 15:00:00 NR -22.69 65.51
SI 18:00:00 NR -23.40 66.06
SI 21:00:00 NR -24.07 66.61
SI 1893-03-26 00:00:00 NR -24.70 67.13
SI 03:00:00 NR -25.24 67.60
SI 06:00:00 NR -25.70 68.00
SI 09:00:00 NR -26.05 68.30
SI 12:00:00 NR -26.29 68.52
SI 15:00:00 NR -26.46 68.67
SI 18:00:00 NR -26.55 68.75
SI 21:00:00 NR -26.59 68.78
SI 1893-03-27 00:00:00 NR -26.58 68.77
SI 03:00:00 NR -26.55 68.74
SI 06:00:00 NR -26.50 68.70

Source Information

Agency Information
USA
TOKYO
CMA
HKO
NEWDELHI
REUNION WMO-Best-Tracks.txt:Line=1667:xxxx893244
BOM
NADI
WELLINGTON
DS824
TD9636 cons_worldwide_trop_cyclone_18710101-19891231-005:Line=2248
TD9635
NEUMANN
MLC

All available IBTrACS Data

SEASON BASIN SUBBASIN ISO_TIME_________ NATURE LAT LON WMO AGENCY DIST2LAND LANDFALL IFLAG USA SSHS REUNION LAT REUNION LON REUNION TYPE REUNION TNUM TD9636 LAT TD9636 LON TD9636 STAGE STORM SPEED STORM DIR
Year degrees north degrees east km km 1 degrees north degrees east 1 degrees north degrees east kts degrees
1893 SI MM 1893-03-20 18:00:00 NR -9.80 60.60 1194 1183 __________O___ -1 -9.80 60.60 7 2 165
1893 SI MM 21:00:00 NR -9.88 60.62 1183 1172 __________P___ -1 -9.88 60.62 7 2 167
1893 SI MM 1893-03-21 00:00:00 NR -9.97 60.64 1172 1164 __________P___ -1 -9.97 60.64 7 2 170
1893 SI MM 03:00:00 NR -10.11 60.67 1164 1153 __________P___ -1 -10.11 60.67 7 2 166
1893 SI MM 06:00:00 NR -10.20 60.70 reunion 1153 1143 _____O____O___ -1 -9.80 60.70 99 9.90 -10.30 60.70 7 2 167
1893 SI MM 09:00:00 NR -10.32 60.73 1143 1132 _____P____P___ -1 -9.84 60.71 99 -10.56 60.74 7 3 167
1893 SI MM 12:00:00 NR -10.45 60.75 1124 1113 _____P____P___ -1 -9.88 60.71 99 -10.88 60.79 7 3 167
1893 SI MM 15:00:00 NR -10.58 60.78 1113 1092 _____P____P___ -1 -9.93 60.72 99 -11.24 60.84 7 4 172
1893 SI MM 18:00:00 NR -10.80 60.82 1092 1071 _____P____O___ -1 -10.00 60.73 99 -11.60 60.90 7 4 170
1893 SI MM 21:00:00 NR -11.00 60.86 1074 1053 _____P____P___ -1 -10.08 60.74 99 -11.93 60.97 7 4 170
1893 SI MM 1893-03-22 00:00:00 NR -11.23 60.90 1053 1021 _____P____P___ -1 -10.19 60.76 99 -12.26 61.04 7 5 170
1893 SI MM 03:00:00 NR -11.47 60.95 1021 1004 _____P____P___ -1 -10.33 60.78 99 -12.62 61.12 7 5 169
1893 SI MM 06:00:00 NR -11.75 61.00 reunion 1004 972 _____O____O___ -1 -10.50 60.80 99 9.90 -13.00 61.20 7 6 171
1893 SI MM 09:00:00 NR -12.06 61.04 962 934 _____P____P___ -1 -10.71 60.83 99 -13.42 61.28 7 7 172
1893 SI MM 12:00:00 NR -12.41 61.09 934 893 _____P____P___ -1 -10.95 60.86 99 -13.86 61.35 7 7 172
1893 SI MM 15:00:00 NR -12.78 61.15 898 857 _____P____P___ -1 -11.23 60.90 99 -14.33 61.43 7 8 171
1893 SI MM 18:00:00 NR -13.17 61.22 857 847 _____P____O___ -1 -11.53 60.94 99 -14.80 61.50 7 5 169
1893 SI MM 21:00:00 NR -13.31 61.26 852 842 _____P________ -1 -11.87 60.99 99 7 2 161
1893 SI MM 1893-03-23 00:00:00 NR -13.37 61.29 842 842 _____P________ -1 -12.22 61.05 99 7 0 0
1893 SI MM 03:00:00 NR -13.31 61.28 852 852 _____P________ -1 -12.60 61.12 99 7 4 346
1893 SI MM 06:00:00 NR -13.00 61.20 reunion 877 842 _____O________ -1 -13.00 61.20 99 9.90 1 0
1893 SI MM 09:00:00 NR -13.39 61.27 842 802 _____P________ -1 -13.39 61.27 99 8 169
1893 SI MM 12:00:00 NR -13.80 61.35 802 768 _____P________ -1 -13.80 61.35 99 9 169
1893 SI MM 15:00:00 NR -14.24 61.44 768 726 _____P________ -1 -14.24 61.44 99 9 168
1893 SI MM 18:00:00 NR -14.69 61.54 726 695 _____P________ -1 -14.69 61.54 99 9 167
1893 SI MM 21:00:00 NR -15.15 61.65 692 664 _____P________ -1 -15.15 61.65 99 10 166
1893 SI MM 1893-03-24 00:00:00 NR -15.63 61.79 664 630 _____P________ -1 -15.63 61.79 99 10 164
1893 SI MM 03:00:00 NR -16.11 61.93 630 607 _____P________ -1 -16.11 61.93 99 10 163
1893 SI MM 06:00:00 NR -16.60 62.10 reunion 607 587 _____O________ -1 -16.60 62.10 99 9.90 10 162
1893 SI MM 09:00:00 NR -17.06 62.25 589 573 _____P________ -1 -17.06 62.25 99 10 162
1893 SI MM 12:00:00 NR -17.53 62.42 573 566 _____P________ -1 -17.53 62.42 99 10 160
1893 SI MM 15:00:00 NR -18.00 62.61 566 560 _____P________ -1 -18.00 62.61 99 10 158
1893 SI MM 18:00:00 NR -18.49 62.83 561 561 _____P________ -1 -18.49 62.83 99 11 156
1893 SI MM 21:00:00 NR -18.99 63.07 573 570 _____P________ -1 -18.99 63.07 99 11 154
1893 SI MM 1893-03-25 00:00:00 NR -19.50 63.34 581 581 _____P________ -1 -19.50 63.34 99 12 153
1893 SI MM 03:00:00 NR -20.04 63.65 616 615 _____P________ -1 -20.04 63.65 99 13 151
1893 SI MM 06:00:00 NR -20.60 64.00 reunion 646 646 _____O________ -1 -20.60 64.00 99 9.90 15 149
1893 SI MM 09:00:00 NR -21.27 64.46 705 705 _____P________ -1 -21.27 64.46 99 17 147
1893 SI MM 12:00:00 NR -21.98 64.97 770 770 _____P________ -1 -21.98 64.97 99 17 146
1893 SI MM 15:00:00 NR -22.69 65.51 840 840 _____P________ -1 -22.69 65.51 99 18 145
1893 SI MM 18:00:00 NR -23.40 66.06 923 923 _____P________ -1 -23.40 66.06 99 17 144
1893 SI MM 21:00:00 NR -24.07 66.61 999 999 _____P________ -1 -24.07 66.61 99 16 143
1893 SI MM 1893-03-26 00:00:00 NR -24.70 67.13 1072 1072 _____P________ -1 -24.70 67.13 99 15 142
1893 SI MM 03:00:00 NR -25.24 67.60 1141 1141 _____P________ -1 -25.24 67.60 99 13 142
1893 SI MM 06:00:00 NR -25.70 68.00 reunion 1202 1202 _____O________ -1 -25.70 68.00 99 9.90 10 142
1893 SI MM 09:00:00 NR -26.05 68.30 1244 1244 _____P________ -1 -26.05 68.30 99 8 142
1893 SI MM 12:00:00 NR -26.29 68.52 1277 1277 _____P________ -1 -26.29 68.52 99 5 141
1893 SI MM 15:00:00 NR -26.46 68.67 1305 1305 _____P________ -1 -26.46 68.67 99 3 142
1893 SI MM 18:00:00 NR -26.55 68.75 1310 1310 _____P________ -1 -26.55 68.75 99 2 140
1893 SI MM 21:00:00 NR -26.59 68.78 1319 1319 _____P________ -1 -26.59 68.78 99 0 142
1893 SI MM 1893-03-27 00:00:00 NR -26.58 68.77 1319 1310 _____P________ -1 -26.58 68.77 99 1 314
1893 SI MM 03:00:00 NR -26.55 68.74 1305 1305 _____P________ -1 -26.55 68.74 99 1 321
1893 SI MM 06:00:00 NR -26.50 68.70 reunion 1305 _____O________ -1 -26.50 68.70 99 9.90 1 328